sensor_id;sensor_type;location;lat;lon;timestamp;P1;durP1;ratioP1;P2;durP2;ratioP2
19043;SDS011;9654;52.302;8.120;2023-04-15T00:01:08;10.50;;;6.50;;
19043;SDS011;9654;52.302;8.120;2023-04-15T00:03:37;12.13;;;6.67;;
19043;SDS011;9654;52.302;8.120;2023-04-15T00:06:04;8.03;;;5.67;;
19043;SDS011;9654;52.302;8.120;2023-04-15T00:08:30;10.77;;;6.00;;
19043;SDS011;9654;52.302;8.120;2023-04-15T00:10:57;9.13;;;6.10;;
19043;SDS011;9654;52.302;8.120;2023-04-15T00:13:26;7.70;;;5.87;;
19043;SDS011;9654;52.302;8.120;2023-04-15T00:15:53;10.57;;;6.27;;
19043;SDS011;9654;52.302;8.120;2023-04-15T00:18:20;8.23;;;5.73;;
19043;SDS011;9654;52.302;8.120;2023-04-15T00:20:48;6.90;;;5.47;;
19043;SDS011;9654;52.302;8.120;2023-04-15T00:23:15;10.43;;;5.60;;
19043;SDS011;9654;52.302;8.120;2023-04-15T00:25:42;9.30;;;5.97;;
19043;SDS011;9654;52.302;8.120;2023-04-15T00:28:09;6.23;;;5.20;;
19043;SDS011;9654;52.302;8.120;2023-04-15T00:30:35;7.27;;;5.57;;
19043;SDS011;9654;52.302;8.120;2023-04-15T00:33:02;6.67;;;5.23;;
19043;SDS011;9654;52.302;8.120;2023-04-15T00:35:29;9.00;;;5.33;;
19043;SDS011;9654;52.302;8.120;2023-04-15T00:37:58;5.57;;;5.00;;
19043;SDS011;9654;52.302;8.120;2023-04-15T00:40:25;8.23;;;5.63;;
19043;SDS011;9654;52.302;8.120;2023-04-15T00:42:51;6.87;;;5.40;;
19043;SDS011;9654;52.302;8.120;2023-04-15T00:45:19;9.17;;;5.73;;
19043;SDS011;9654;52.302;8.120;2023-04-15T00:47:46;6.47;;;5.77;;
19043;SDS011;9654;52.302;8.120;2023-04-15T00:50:12;8.20;;;5.50;;
19043;SDS011;9654;52.302;8.120;2023-04-15T00:52:39;7.93;;;6.03;;
19043;SDS011;9654;52.302;8.120;2023-04-15T00:55:09;10.63;;;5.83;;
19043;SDS011;9654;52.302;8.120;2023-04-15T00:57:36;7.33;;;5.77;;
19043;SDS011;9654;52.302;8.120;2023-04-15T01:00:04;8.10;;;5.67;;
19043;SDS011;9654;52.302;8.120;2023-04-15T01:02:33;10.27;;;6.63;;
19043;SDS011;9654;52.302;8.120;2023-04-15T01:05:01;8.87;;;6.33;;
19043;SDS011;9654;52.302;8.120;2023-04-15T01:07:30;8.20;;;6.67;;
19043;SDS011;9654;52.302;8.120;2023-04-15T01:09:57;10.73;;;7.10;;
19043;SDS011;9654;52.302;8.120;2023-04-15T01:12:25;12.07;;;7.13;;
19043;SDS011;9654;52.302;8.120;2023-04-15T01:14:53;10.50;;;6.30;;
19043;SDS011;9654;52.302;8.120;2023-04-15T01:17:20;11.97;;;7.13;;
19043;SDS011;9654;52.302;8.120;2023-04-15T01:19:47;11.17;;;7.67;;
19043;SDS011;9654;52.302;8.120;2023-04-15T01:22:14;8.47;;;6.50;;
19043;SDS011;9654;52.302;8.120;2023-04-15T01:24:41;10.70;;;7.07;;
19043;SDS011;9654;52.302;8.120;2023-04-15T01:27:14;15.07;;;7.40;;
19043;SDS011;9654;52.302;8.120;2023-04-15T01:29:41;15.33;;;8.10;;
19043;SDS011;9654;52.302;8.120;2023-04-15T01:32:08;13.37;;;7.97;;
19043;SDS011;9654;52.302;8.120;2023-04-15T01:34:35;10.40;;;7.30;;
19043;SDS011;9654;52.302;8.120;2023-04-15T01:37:01;11.87;;;7.70;;
19043;SDS011;9654;52.302;8.120;2023-04-15T01:39:28;15.37;;;8.43;;
19043;SDS011;9654;52.302;8.120;2023-04-15T01:41:55;11.83;;;7.90;;
19043;SDS011;9654;52.302;8.120;2023-04-15T01:44:23;12.03;;;7.73;;
19043;SDS011;9654;52.302;8.120;2023-04-15T01:46:50;12.67;;;7.87;;
19043;SDS011;9654;52.302;8.120;2023-04-15T01:49:17;11.13;;;8.50;;
19043;SDS011;9654;52.302;8.120;2023-04-15T01:51:44;11.60;;;8.07;;
19043;SDS011;9654;52.302;8.120;2023-04-15T01:54:10;11.47;;;7.93;;
19043;SDS011;9654;52.302;8.120;2023-04-15T01:56:37;13.63;;;8.67;;
19043;SDS011;9654;52.302;8.120;2023-04-15T01:59:04;15.90;;;9.47;;
19043;SDS011;9654;52.302;8.120;2023-04-15T02:01:32;11.37;;;7.53;;
19043;SDS011;9654;52.302;8.120;2023-04-15T02:03:59;10.53;;;7.57;;
19043;SDS011;9654;52.302;8.120;2023-04-15T02:06:26;12.13;;;8.20;;
19043;SDS011;9654;52.302;8.120;2023-04-15T02:08:53;13.87;;;8.20;;
19043;SDS011;9654;52.302;8.120;2023-04-15T02:11:19;13.90;;;8.57;;
19043;SDS011;9654;52.302;8.120;2023-04-15T02:13:47;11.73;;;8.00;;
19043;SDS011;9654;52.302;8.120;2023-04-15T02:16:14;16.03;;;8.87;;
19043;SDS011;9654;52.302;8.120;2023-04-15T02:18:44;14.40;;;9.43;;
19043;SDS011;9654;52.302;8.120;2023-04-15T02:21:11;10.90;;;8.10;;
19043;SDS011;9654;52.302;8.120;2023-04-15T02:23:38;14.73;;;8.53;;
19043;SDS011;9654;52.302;8.120;2023-04-15T02:26:05;13.93;;;9.83;;
19043;SDS011;9654;52.302;8.120;2023-04-15T02:28:32;14.60;;;8.93;;
19043;SDS011;9654;52.302;8.120;2023-04-15T02:30:58;13.27;;;8.80;;
19043;SDS011;9654;52.302;8.120;2023-04-15T02:33:26;12.27;;;8.63;;
19043;SDS011;9654;52.302;8.120;2023-04-15T02:35:54;14.53;;;8.80;;
19043;SDS011;9654;52.302;8.120;2023-04-15T02:38:21;15.33;;;9.43;;
19043;SDS011;9654;52.302;8.120;2023-04-15T02:40:47;13.60;;;9.13;;
19043;SDS011;9654;52.302;8.120;2023-04-15T02:43:15;16.63;;;9.77;;
19043;SDS011;9654;52.302;8.120;2023-04-15T02:45:42;16.23;;;10.07;;
19043;SDS011;9654;52.302;8.120;2023-04-15T02:48:09;16.10;;;10.03;;
19043;SDS011;9654;52.302;8.120;2023-04-15T02:50:35;17.10;;;10.00;;
19043;SDS011;9654;52.302;8.120;2023-04-15T02:53:04;13.27;;;9.47;;
19043;SDS011;9654;52.302;8.120;2023-04-15T02:55:31;16.43;;;10.17;;
19043;SDS011;9654;52.302;8.120;2023-04-15T02:57:58;13.00;;;8.80;;
19043;SDS011;9654;52.302;8.120;2023-04-15T03:00:25;15.93;;;9.50;;
19043;SDS011;9654;52.302;8.120;2023-04-15T03:02:56;18.57;;;9.07;;
19043;SDS011;9654;52.302;8.120;2023-04-15T03:05:24;16.80;;;10.13;;
19043;SDS011;9654;52.302;8.120;2023-04-15T03:07:51;16.90;;;10.40;;
19043;SDS011;9654;52.302;8.120;2023-04-15T03:10:19;14.63;;;10.43;;
19043;SDS011;9654;52.302;8.120;2023-04-15T03:12:46;19.50;;;11.27;;
19043;SDS011;9654;52.302;8.120;2023-04-15T03:15:13;19.37;;;11.27;;
19043;SDS011;9654;52.302;8.120;2023-04-15T03:17:40;16.20;;;10.53;;
19043;SDS011;9654;52.302;8.120;2023-04-15T03:20:07;21.07;;;12.47;;
19043;SDS011;9654;52.302;8.120;2023-04-15T03:22:35;16.93;;;10.90;;
19043;SDS011;9654;52.302;8.120;2023-04-15T03:25:02;20.77;;;12.37;;
19043;SDS011;9654;52.302;8.120;2023-04-15T03:27:30;18.23;;;11.73;;
19043;SDS011;9654;52.302;8.120;2023-04-15T03:29:57;19.30;;;10.47;;
19043;SDS011;9654;52.302;8.120;2023-04-15T03:32:23;16.97;;;10.83;;
19043;SDS011;9654;52.302;8.120;2023-04-15T03:34:51;19.03;;;10.60;;
19043;SDS011;9654;52.302;8.120;2023-04-15T03:37:17;20.30;;;10.40;;
19043;SDS011;9654;52.302;8.120;2023-04-15T03:39:44;18.30;;;11.47;;
19043;SDS011;9654;52.302;8.120;2023-04-15T03:42:11;21.23;;;11.93;;
19043;SDS011;9654;52.302;8.120;2023-04-15T03:44:39;18.43;;;10.63;;
19043;SDS011;9654;52.302;8.120;2023-04-15T03:47:06;18.50;;;11.10;;
19043;SDS011;9654;52.302;8.120;2023-04-15T03:49:33;20.40;;;11.30;;
19043;SDS011;9654;52.302;8.120;2023-04-15T03:52:00;18.57;;;11.40;;
19043;SDS011;9654;52.302;8.120;2023-04-15T03:54:26;23.17;;;12.23;;
19043;SDS011;9654;52.302;8.120;2023-04-15T03:56:53;19.03;;;11.50;;
19043;SDS011;9654;52.302;8.120;2023-04-15T03:59:20;19.63;;;12.20;;
19043;SDS011;9654;52.302;8.120;2023-04-15T04:01:48;23.53;;;13.30;;
19043;SDS011;9654;52.302;8.120;2023-04-15T04:04:15;20.53;;;11.97;;
19043;SDS011;9654;52.302;8.120;2023-04-15T04:06:42;20.67;;;12.13;;
19043;SDS011;9654;52.302;8.120;2023-04-15T04:09:09;22.83;;;13.33;;
19043;SDS011;9654;52.302;8.120;2023-04-15T04:11:36;23.17;;;12.67;;
19043;SDS011;9654;52.302;8.120;2023-04-15T04:14:03;24.27;;;12.80;;
19043;SDS011;9654;52.302;8.120;2023-04-15T04:16:30;21.67;;;12.60;;
19043;SDS011;9654;52.302;8.120;2023-04-15T04:18:58;24.97;;;12.80;;
19043;SDS011;9654;52.302;8.120;2023-04-15T04:21:25;20.93;;;12.50;;
19043;SDS011;9654;52.302;8.120;2023-04-15T04:23:52;20.27;;;12.20;;
19043;SDS011;9654;52.302;8.120;2023-04-15T04:26:18;22.07;;;12.10;;
19043;SDS011;9654;52.302;8.120;2023-04-15T04:28:45;21.03;;;11.23;;
19043;SDS011;9654;52.302;8.120;2023-04-15T04:31:12;19.83;;;11.33;;
19043;SDS011;9654;52.302;8.120;2023-04-15T04:33:39;22.27;;;12.07;;
19043;SDS011;9654;52.302;8.120;2023-04-15T04:36:07;17.67;;;10.67;;
19043;SDS011;9654;52.302;8.120;2023-04-15T04:38:34;22.23;;;11.70;;
19043;SDS011;9654;52.302;8.120;2023-04-15T04:41:01;22.23;;;12.83;;
19043;SDS011;9654;52.302;8.120;2023-04-15T04:43:28;25.70;;;12.53;;
19043;SDS011;9654;52.302;8.120;2023-04-15T04:45:54;23.80;;;13.33;;
19043;SDS011;9654;52.302;8.120;2023-04-15T04:48:21;19.13;;;12.33;;
19043;SDS011;9654;52.302;8.120;2023-04-15T04:50:48;23.73;;;12.30;;
19043;SDS011;9654;52.302;8.120;2023-04-15T04:53:16;22.63;;;12.60;;
19043;SDS011;9654;52.302;8.120;2023-04-15T04:55:43;25.50;;;14.53;;
19043;SDS011;9654;52.302;8.120;2023-04-15T04:58:10;29.97;;;14.43;;
19043;SDS011;9654;52.302;8.120;2023-04-15T05:00:37;33.73;;;16.50;;
19043;SDS011;9654;52.302;8.120;2023-04-15T05:03:06;37.70;;;17.90;;
19043;SDS011;9654;52.302;8.120;2023-04-15T05:05:33;35.43;;;18.10;;
19043;SDS011;9654;52.302;8.120;2023-04-15T05:08:00;35.67;;;18.43;;
19043;SDS011;9654;52.302;8.120;2023-04-15T05:10:29;38.13;;;18.87;;
19043;SDS011;9654;52.302;8.120;2023-04-15T05:12:55;38.37;;;19.63;;
19043;SDS011;9654;52.302;8.120;2023-04-15T05:15:22;40.63;;;19.80;;
19043;SDS011;9654;52.302;8.120;2023-04-15T05:17:49;38.77;;;20.13;;
19043;SDS011;9654;52.302;8.120;2023-04-15T05:20:16;37.73;;;19.00;;
19043;SDS011;9654;52.302;8.120;2023-04-15T05:22:43;39.10;;;20.20;;
19043;SDS011;9654;52.302;8.120;2023-04-15T05:25:10;38.13;;;19.40;;
19043;SDS011;9654;52.302;8.120;2023-04-15T05:27:39;35.97;;;20.33;;
19043;SDS011;9654;52.302;8.120;2023-04-15T05:30:06;31.80;;;18.60;;
19043;SDS011;9654;52.302;8.120;2023-04-15T05:32:34;34.87;;;19.83;;
19043;SDS011;9654;52.302;8.120;2023-04-15T05:35:00;35.70;;;19.53;;
19043;SDS011;9654;52.302;8.120;2023-04-15T05:37:27;38.00;;;19.60;;
19043;SDS011;9654;52.302;8.120;2023-04-15T05:39:54;35.70;;;18.93;;
19043;SDS011;9654;52.302;8.120;2023-04-15T05:42:21;40.47;;;19.70;;
19043;SDS011;9654;52.302;8.120;2023-04-15T05:44:49;35.90;;;19.27;;
19043;SDS011;9654;52.302;8.120;2023-04-15T05:47:16;35.27;;;19.70;;
19043;SDS011;9654;52.302;8.120;2023-04-15T05:49:43;35.27;;;19.57;;
19043;SDS011;9654;52.302;8.120;2023-04-15T05:52:09;35.03;;;18.40;;
19043;SDS011;9654;52.302;8.120;2023-04-15T05:54:36;32.97;;;18.67;;
19043;SDS011;9654;52.302;8.120;2023-04-15T05:57:03;31.23;;;17.73;;
19043;SDS011;9654;52.302;8.120;2023-04-15T05:59:30;37.43;;;18.93;;
19043;SDS011;9654;52.302;8.120;2023-04-15T06:01:58;37.60;;;19.73;;
19043;SDS011;9654;52.302;8.120;2023-04-15T06:04:25;34.03;;;18.63;;
19043;SDS011;9654;52.302;8.120;2023-04-15T06:06:51;36.77;;;17.97;;
19043;SDS011;9654;52.302;8.120;2023-04-15T06:09:18;33.93;;;19.17;;
19043;SDS011;9654;52.302;8.120;2023-04-15T06:11:45;35.83;;;19.27;;
19043;SDS011;9654;52.302;8.120;2023-04-15T06:14:12;32.63;;;18.37;;
19043;SDS011;9654;52.302;8.120;2023-04-15T06:16:38;33.27;;;17.70;;
19043;SDS011;9654;52.302;8.120;2023-04-15T06:19:06;33.13;;;16.70;;
19043;SDS011;9654;52.302;8.120;2023-04-15T06:21:33;36.77;;;18.37;;
19043;SDS011;9654;52.302;8.120;2023-04-15T06:24:00;33.37;;;16.83;;
19043;SDS011;9654;52.302;8.120;2023-04-15T06:26:27;33.33;;;17.60;;
19043;SDS011;9654;52.302;8.120;2023-04-15T06:28:55;34.77;;;17.70;;
19043;SDS011;9654;52.302;8.120;2023-04-15T06:31:21;31.30;;;16.90;;
19043;SDS011;9654;52.302;8.120;2023-04-15T06:33:48;28.30;;;16.83;;
19043;SDS011;9654;52.302;8.120;2023-04-15T06:36:16;29.97;;;16.73;;
19043;SDS011;9654;52.302;8.120;2023-04-15T06:38:43;33.00;;;18.80;;
19043;SDS011;9654;52.302;8.120;2023-04-15T06:41:10;34.30;;;18.83;;
19043;SDS011;9654;52.302;8.120;2023-04-15T06:43:37;32.63;;;17.73;;
19043;SDS011;9654;52.302;8.120;2023-04-15T06:46:04;33.60;;;18.40;;
19043;SDS011;9654;52.302;8.120;2023-04-15T06:48:31;33.57;;;18.60;;
19043;SDS011;9654;52.302;8.120;2023-04-15T06:50:57;35.83;;;19.17;;
19043;SDS011;9654;52.302;8.120;2023-04-15T06:53:26;38.57;;;18.73;;
19043;SDS011;9654;52.302;8.120;2023-04-15T06:55:52;35.23;;;18.60;;
19043;SDS011;9654;52.302;8.120;2023-04-15T06:58:19;32.50;;;17.50;;
19043;SDS011;9654;52.302;8.120;2023-04-15T07:00:46;35.77;;;18.47;;
19043;SDS011;9654;52.302;8.120;2023-04-15T07:03:13;35.47;;;18.57;;
19043;SDS011;9654;52.302;8.120;2023-04-15T07:05:40;39.57;;;19.60;;
19043;SDS011;9654;52.302;8.120;2023-04-15T07:08:10;38.07;;;19.40;;
19043;SDS011;9654;52.302;8.120;2023-04-15T07:10:38;37.13;;;18.73;;
19043;SDS011;9654;52.302;8.120;2023-04-15T07:13:05;41.13;;;19.87;;
19043;SDS011;9654;52.302;8.120;2023-04-15T07:15:32;41.90;;;19.53;;
19043;SDS011;9654;52.302;8.120;2023-04-15T07:17:59;36.23;;;19.33;;
19043;SDS011;9654;52.302;8.120;2023-04-15T07:20:26;39.07;;;19.63;;
19043;SDS011;9654;52.302;8.120;2023-04-15T07:22:53;35.50;;;17.27;;
19043;SDS011;9654;52.302;8.120;2023-04-15T07:25:19;31.70;;;17.47;;
19043;SDS011;9654;52.302;8.120;2023-04-15T07:27:48;30.33;;;16.83;;
19043;SDS011;9654;52.302;8.120;2023-04-15T07:30:15;34.87;;;17.50;;
19043;SDS011;9654;52.302;8.120;2023-04-15T07:32:42;33.00;;;16.97;;
19043;SDS011;9654;52.302;8.120;2023-04-15T07:35:08;33.60;;;17.77;;
19043;SDS011;9654;52.302;8.120;2023-04-15T07:37:35;32.20;;;16.63;;
19043;SDS011;9654;52.302;8.120;2023-04-15T07:40:02;32.30;;;17.70;;
19043;SDS011;9654;52.302;8.120;2023-04-15T07:42:31;32.73;;;16.03;;
19043;SDS011;9654;52.302;8.120;2023-04-15T07:44:59;28.93;;;15.90;;
19043;SDS011;9654;52.302;8.120;2023-04-15T07:47:26;31.50;;;16.23;;
19043;SDS011;9654;52.302;8.120;2023-04-15T07:49:53;29.90;;;16.13;;
19043;SDS011;9654;52.302;8.120;2023-04-15T07:52:20;27.73;;;15.47;;
19043;SDS011;9654;52.302;8.120;2023-04-15T07:54:46;33.23;;;16.63;;
19043;SDS011;9654;52.302;8.120;2023-04-15T07:57:13;32.47;;;17.00;;
19043;SDS011;9654;52.302;8.120;2023-04-15T07:59:40;33.00;;;17.93;;
19043;SDS011;9654;52.302;8.120;2023-04-15T08:02:09;31.77;;;16.67;;
19043;SDS011;9654;52.302;8.120;2023-04-15T08:04:36;35.07;;;18.33;;
19043;SDS011;9654;52.302;8.120;2023-04-15T08:07:03;33.57;;;17.10;;
19043;SDS011;9654;52.302;8.120;2023-04-15T08:09:30;29.23;;;16.30;;
19043;SDS011;9654;52.302;8.120;2023-04-15T08:11:56;27.73;;;15.07;;
19043;SDS011;9654;52.302;8.120;2023-04-15T08:14:23;35.77;;;17.50;;
19043;SDS011;9654;52.302;8.120;2023-04-15T08:16:50;32.77;;;17.37;;
19043;SDS011;9654;52.302;8.120;2023-04-15T08:19:18;32.80;;;17.17;;
19043;SDS011;9654;52.302;8.120;2023-04-15T08:21:45;29.80;;;16.17;;
19043;SDS011;9654;52.302;8.120;2023-04-15T08:24:12;25.60;;;14.93;;
19043;SDS011;9654;52.302;8.120;2023-04-15T08:26:39;30.57;;;16.00;;
19043;SDS011;9654;52.302;8.120;2023-04-15T08:29:06;31.90;;;15.47;;
19043;SDS011;9654;52.302;8.120;2023-04-15T08:31:33;25.13;;;13.40;;
19043;SDS011;9654;52.302;8.120;2023-04-15T08:33:59;27.17;;;15.13;;
19043;SDS011;9654;52.302;8.120;2023-04-15T08:36:28;26.13;;;14.23;;
19043;SDS011;9654;52.302;8.120;2023-04-15T08:38:54;24.63;;;13.60;;
19043;SDS011;9654;52.302;8.120;2023-04-15T08:41:22;24.07;;;13.90;;
19043;SDS011;9654;52.302;8.120;2023-04-15T08:43:53;26.50;;;13.73;;
19043;SDS011;9654;52.302;8.120;2023-04-15T08:46:23;39.03;;;15.20;;
19043;SDS011;9654;52.302;8.120;2023-04-15T08:48:50;23.23;;;12.00;;
19043;SDS011;9654;52.302;8.120;2023-04-15T08:51:17;23.07;;;12.80;;
19043;SDS011;9654;52.302;8.120;2023-04-15T08:53:45;23.33;;;12.40;;
19043;SDS011;9654;52.302;8.120;2023-04-15T08:56:13;23.07;;;12.63;;
19043;SDS011;9654;52.302;8.120;2023-04-15T08:58:40;24.30;;;12.93;;
19043;SDS011;9654;52.302;8.120;2023-04-15T09:01:08;21.43;;;12.53;;
19043;SDS011;9654;52.302;8.120;2023-04-15T09:03:36;20.07;;;12.10;;
19043;SDS011;9654;52.302;8.120;2023-04-15T09:06:04;21.17;;;11.60;;
19043;SDS011;9654;52.302;8.120;2023-04-15T09:08:31;19.73;;;11.70;;
19043;SDS011;9654;52.302;8.120;2023-04-15T09:11:00;19.90;;;10.00;;
19043;SDS011;9654;52.302;8.120;2023-04-15T09:13:27;18.13;;;9.90;;
19043;SDS011;9654;52.302;8.120;2023-04-15T09:15:53;15.13;;;9.40;;
19043;SDS011;9654;52.302;8.120;2023-04-15T09:18:27;17.97;;;9.37;;
19043;SDS011;9654;52.302;8.120;2023-04-15T09:20:55;16.10;;;9.27;;
19043;SDS011;9654;52.302;8.120;2023-04-15T09:23:22;15.10;;;9.40;;
19043;SDS011;9654;52.302;8.120;2023-04-15T09:25:49;13.83;;;9.20;;
19043;SDS011;9654;52.302;8.120;2023-04-15T09:28:23;15.30;;;9.60;;
19043;SDS011;9654;52.302;8.120;2023-04-15T09:30:52;16.50;;;9.20;;
19043;SDS011;9654;52.302;8.120;2023-04-15T09:33:21;15.00;;;9.03;;
19043;SDS011;9654;52.302;8.120;2023-04-15T09:35:58;12.97;;;8.70;;
19043;SDS011;9654;52.302;8.120;2023-04-15T09:38:25;15.53;;;9.20;;
19043;SDS011;9654;52.302;8.120;2023-04-15T09:40:52;15.37;;;9.80;;
19043;SDS011;9654;52.302;8.120;2023-04-15T09:43:20;15.90;;;9.00;;
19043;SDS011;9654;52.302;8.120;2023-04-15T09:45:48;16.70;;;9.47;;
19043;SDS011;9654;52.302;8.120;2023-04-15T09:48:17;14.80;;;9.43;;
19043;SDS011;9654;52.302;8.120;2023-04-15T09:50:46;14.67;;;8.50;;
19043;SDS011;9654;52.302;8.120;2023-04-15T09:53:17;12.27;;;7.97;;
19043;SDS011;9654;52.302;8.120;2023-04-15T09:55:45;13.27;;;8.87;;
19043;SDS011;9654;52.302;8.120;2023-04-15T09:58:18;12.93;;;8.53;;
19043;SDS011;9654;52.302;8.120;2023-04-15T10:00:45;14.37;;;8.13;;
19043;SDS011;9654;52.302;8.120;2023-04-15T10:03:16;14.13;;;8.13;;
19043;SDS011;9654;52.302;8.120;2023-04-15T10:05:45;12.77;;;7.93;;
19043;SDS011;9654;52.302;8.120;2023-04-15T10:08:14;13.73;;;8.03;;
19043;SDS011;9654;52.302;8.120;2023-04-15T10:10:43;11.43;;;7.90;;
19043;SDS011;9654;52.302;8.120;2023-04-15T10:13:11;10.13;;;6.73;;
19043;SDS011;9654;52.302;8.120;2023-04-15T10:15:39;12.30;;;7.33;;
19043;SDS011;9654;52.302;8.120;2023-04-15T10:18:09;11.57;;;7.03;;
19043;SDS011;9654;52.302;8.120;2023-04-15T10:20:39;10.90;;;7.60;;
19043;SDS011;9654;52.302;8.120;2023-04-15T10:23:07;10.30;;;6.77;;
19043;SDS011;9654;52.302;8.120;2023-04-15T10:25:35;9.00;;;6.43;;
19043;SDS011;9654;52.302;8.120;2023-04-15T10:28:02;11.20;;;7.40;;
19043;SDS011;9654;52.302;8.120;2023-04-15T10:30:31;10.37;;;7.40;;
19043;SDS011;9654;52.302;8.120;2023-04-15T10:32:58;11.07;;;6.90;;
19043;SDS011;9654;52.302;8.120;2023-04-15T10:35:26;9.60;;;6.87;;
19043;SDS011;9654;52.302;8.120;2023-04-15T10:37:56;9.37;;;6.30;;
19043;SDS011;9654;52.302;8.120;2023-04-15T10:40:24;10.83;;;6.40;;
19043;SDS011;9654;52.302;8.120;2023-04-15T10:42:52;10.13;;;6.30;;
19043;SDS011;9654;52.302;8.120;2023-04-15T10:45:19;9.83;;;6.47;;
19043;SDS011;9654;52.302;8.120;2023-04-15T10:47:50;9.83;;;6.70;;
19043;SDS011;9654;52.302;8.120;2023-04-15T10:50:19;10.83;;;6.37;;
19043;SDS011;9654;52.302;8.120;2023-04-15T10:52:49;9.50;;;5.40;;
19043;SDS011;9654;52.302;8.120;2023-04-15T10:55:19;6.47;;;4.60;;
19043;SDS011;9654;52.302;8.120;2023-04-15T10:57:50;7.03;;;5.37;;
19043;SDS011;9654;52.302;8.120;2023-04-15T11:00:18;7.97;;;5.73;;
19043;SDS011;9654;52.302;8.120;2023-04-15T11:02:47;6.37;;;4.97;;
19043;SDS011;9654;52.302;8.120;2023-04-15T11:05:18;8.93;;;5.33;;
19043;SDS011;9654;52.302;8.120;2023-04-15T11:07:47;10.70;;;5.90;;
19043;SDS011;9654;52.302;8.120;2023-04-15T11:13:19;8.30;;;5.53;;
19043;SDS011;9654;52.302;8.120;2023-04-15T11:15:54;7.07;;;4.43;;
19043;SDS011;9654;52.302;8.120;2023-04-15T11:18:24;5.43;;;4.27;;
19043;SDS011;9654;52.302;8.120;2023-04-15T11:20:55;6.07;;;4.47;;
19043;SDS011;9654;52.302;8.120;2023-04-15T11:23:27;10.13;;;4.60;;
19043;SDS011;9654;52.302;8.120;2023-04-15T11:25:57;5.27;;;4.10;;
19043;SDS011;9654;52.302;8.120;2023-04-15T11:28:25;8.47;;;4.80;;
19043;SDS011;9654;52.302;8.120;2023-04-15T11:30:53;5.43;;;4.07;;
19043;SDS011;9654;52.302;8.120;2023-04-15T11:33:20;5.27;;;4.40;;
19043;SDS011;9654;52.302;8.120;2023-04-15T11:35:48;5.17;;;3.90;;
19043;SDS011;9654;52.302;8.120;2023-04-15T11:38:15;5.57;;;3.93;;
19043;SDS011;9654;52.302;8.120;2023-04-15T11:40:44;6.73;;;4.37;;
19043;SDS011;9654;52.302;8.120;2023-04-15T11:43:13;6.30;;;4.17;;
19043;SDS011;9654;52.302;8.120;2023-04-15T11:45:49;8.07;;;4.07;;
19043;SDS011;9654;52.302;8.120;2023-04-15T11:48:18;5.50;;;4.50;;
19043;SDS011;9654;52.302;8.120;2023-04-15T11:50:45;6.97;;;4.03;;
19043;SDS011;9654;52.302;8.120;2023-04-15T11:53:17;6.13;;;4.30;;
19043;SDS011;9654;52.302;8.120;2023-04-15T11:55:45;5.60;;;4.00;;
19043;SDS011;9654;52.302;8.120;2023-04-15T11:58:15;4.13;;;3.73;;
19043;SDS011;9654;52.302;8.120;2023-04-15T12:00:46;6.00;;;4.23;;
19043;SDS011;9654;52.302;8.120;2023-04-15T12:03:18;4.43;;;3.90;;
19043;SDS011;9654;52.302;8.120;2023-04-15T12:06:09;5.20;;;3.73;;
19043;SDS011;9654;52.302;8.120;2023-04-15T12:11:39;5.57;;;3.57;;
19043;SDS011;9654;52.302;8.120;2023-04-15T12:14:10;9.57;;;4.00;;
19043;SDS011;9654;52.302;8.120;2023-04-15T12:16:39;6.03;;;3.50;;
19043;SDS011;9654;52.302;8.120;2023-04-15T12:19:08;4.93;;;3.43;;
19043;SDS011;9654;52.302;8.120;2023-04-15T12:21:36;4.10;;;3.40;;
19043;SDS011;9654;52.302;8.120;2023-04-15T12:24:04;4.13;;;3.50;;
19043;SDS011;9654;52.302;8.120;2023-04-15T12:26:33;5.20;;;3.77;;
19043;SDS011;9654;52.302;8.120;2023-04-15T12:29:02;4.63;;;3.63;;
19043;SDS011;9654;52.302;8.120;2023-04-15T12:31:31;5.47;;;3.57;;
19043;SDS011;9654;52.302;8.120;2023-04-15T12:33:59;3.90;;;3.37;;
19043;SDS011;9654;52.302;8.120;2023-04-15T12:36:26;3.67;;;3.37;;
19043;SDS011;9654;52.302;8.120;2023-04-15T12:39:00;3.60;;;3.30;;
19043;SDS011;9654;52.302;8.120;2023-04-15T12:41:28;3.57;;;3.27;;
19043;SDS011;9654;52.302;8.120;2023-04-15T12:43:55;3.83;;;3.53;;
19043;SDS011;9654;52.302;8.120;2023-04-15T12:46:21;5.83;;;3.90;;
19043;SDS011;9654;52.302;8.120;2023-04-15T12:48:50;4.03;;;3.50;;
19043;SDS011;9654;52.302;8.120;2023-04-15T12:51:17;3.70;;;3.40;;
19043;SDS011;9654;52.302;8.120;2023-04-15T12:53:45;4.87;;;4.00;;
19043;SDS011;9654;52.302;8.120;2023-04-15T12:56:12;3.40;;;3.10;;
19043;SDS011;9654;52.302;8.120;2023-04-15T12:58:39;6.20;;;3.63;;
19043;SDS011;9654;52.302;8.120;2023-04-15T13:01:06;4.50;;;3.87;;
19043;SDS011;9654;52.302;8.120;2023-04-15T13:03:32;4.33;;;3.93;;
19043;SDS011;9654;52.302;8.120;2023-04-15T13:06:00;7.10;;;4.40;;
19043;SDS011;9654;52.302;8.120;2023-04-15T13:08:28;4.93;;;4.23;;
19043;SDS011;9654;52.302;8.120;2023-04-15T13:10:55;6.63;;;4.10;;
19043;SDS011;9654;52.302;8.120;2023-04-15T13:13:22;5.80;;;4.33;;
19043;SDS011;9654;52.302;8.120;2023-04-15T13:15:49;8.50;;;4.47;;
19043;SDS011;9654;52.302;8.120;2023-04-15T13:18:15;4.90;;;4.27;;
19043;SDS011;9654;52.302;8.120;2023-04-15T13:20:42;6.37;;;4.50;;
19043;SDS011;9654;52.302;8.120;2023-04-15T13:23:10;6.07;;;4.50;;
19043;SDS011;9654;52.302;8.120;2023-04-15T13:25:37;7.40;;;5.23;;
19043;SDS011;9654;52.302;8.120;2023-04-15T13:28:04;5.23;;;4.43;;
19043;SDS011;9654;52.302;8.120;2023-04-15T13:30:30;6.47;;;5.23;;
19043;SDS011;9654;52.302;8.120;2023-04-15T13:32:57;7.07;;;4.63;;
19043;SDS011;9654;52.302;8.120;2023-04-15T13:35:24;10.03;;;5.73;;
19043;SDS011;9654;52.302;8.120;2023-04-15T13:37:52;7.17;;;5.23;;
19043;SDS011;9654;52.302;8.120;2023-04-15T13:40:21;5.43;;;4.50;;
19043;SDS011;9654;52.302;8.120;2023-04-15T13:42:48;6.43;;;5.47;;
19043;SDS011;9654;52.302;8.120;2023-04-15T13:45:17;7.37;;;5.20;;
19043;SDS011;9654;52.302;8.120;2023-04-15T13:47:43;7.63;;;5.80;;
19043;SDS011;9654;52.302;8.120;2023-04-15T13:50:10;11.63;;;6.37;;
19043;SDS011;9654;52.302;8.120;2023-04-15T13:52:37;10.00;;;6.20;;
19043;SDS011;9654;52.302;8.120;2023-04-15T13:55:05;8.37;;;5.20;;
19043;SDS011;9654;52.302;8.120;2023-04-15T13:57:34;7.13;;;5.93;;
19043;SDS011;9654;52.302;8.120;2023-04-15T14:00:00;7.73;;;5.93;;
19043;SDS011;9654;52.302;8.120;2023-04-15T14:02:29;13.80;;;7.73;;
19043;SDS011;9654;52.302;8.120;2023-04-15T14:04:56;14.00;;;7.40;;
19043;SDS011;9654;52.302;8.120;2023-04-15T14:07:23;9.27;;;6.53;;
19043;SDS011;9654;52.302;8.120;2023-04-15T14:09:50;8.93;;;6.43;;
19043;SDS011;9654;52.302;8.120;2023-04-15T14:12:16;14.97;;;7.97;;
19043;SDS011;9654;52.302;8.120;2023-04-15T14:14:45;10.77;;;6.77;;
19043;SDS011;9654;52.302;8.120;2023-04-15T14:17:11;12.43;;;7.13;;
19043;SDS011;9654;52.302;8.120;2023-04-15T14:19:38;12.93;;;7.40;;
19043;SDS011;9654;52.302;8.120;2023-04-15T14:22:05;12.10;;;7.43;;
19043;SDS011;9654;52.302;8.120;2023-04-15T14:24:32;10.77;;;6.20;;
19043;SDS011;9654;52.302;8.120;2023-04-15T14:26:58;12.33;;;6.93;;
19043;SDS011;9654;52.302;8.120;2023-04-15T14:29:26;10.70;;;7.00;;
19043;SDS011;9654;52.302;8.120;2023-04-15T14:31:54;10.23;;;6.67;;
19043;SDS011;9654;52.302;8.120;2023-04-15T14:34:22;12.43;;;7.73;;
19043;SDS011;9654;52.302;8.120;2023-04-15T14:36:50;13.97;;;7.87;;
19043;SDS011;9654;52.302;8.120;2023-04-15T14:39:17;10.73;;;7.20;;
19043;SDS011;9654;52.302;8.120;2023-04-15T14:41:44;13.27;;;6.90;;
19043;SDS011;9654;52.302;8.120;2023-04-15T14:44:10;13.53;;;7.47;;
19043;SDS011;9654;52.302;8.120;2023-04-15T14:46:37;9.97;;;6.73;;
19043;SDS011;9654;52.302;8.120;2023-04-15T14:49:06;11.03;;;7.00;;
19043;SDS011;9654;52.302;8.120;2023-04-15T14:51:33;9.73;;;7.10;;
19043;SDS011;9654;52.302;8.120;2023-04-15T14:54:00;16.60;;;7.60;;